createdAt,value
2018-11-04T00:17:58.283Z,27.50
2018-11-04T00:20:27.333Z,20.17
2018-11-04T00:22:56.235Z,27.30
2018-11-04T00:25:25.187Z,24.53
2018-11-04T00:27:54.082Z,22.57
2018-11-04T00:30:24.138Z,23.80
2018-11-04T00:32:53.025Z,24.70
2018-11-04T00:35:22.090Z,21.50
2018-11-04T00:37:51.014Z,23.17
2018-11-04T00:40:20.055Z,24.20
2018-11-04T00:42:48.897Z,22.23
2018-11-04T00:45:17.986Z,26.20
2018-11-04T00:47:46.841Z,24.80
2018-11-04T00:50:16.868Z,27.07
2018-11-04T00:52:45.859Z,21.70
2018-11-04T00:55:15.906Z,25.27
2018-11-04T00:57:44.784Z,21.50
2018-11-04T01:00:16.321Z,20.60
2018-11-04T01:02:46.194Z,20.47
2018-11-04T01:05:19.967Z,24.93
2018-11-04T01:07:48.872Z,19.10
2018-11-04T01:10:17.840Z,24.73
2018-11-04T01:12:46.763Z,22.23
2018-11-04T01:15:16.112Z,24.67
2018-11-04T01:17:45.040Z,21.80
2018-11-04T01:20:15.317Z,24.80
2018-11-04T01:22:44.667Z,24.33
2018-11-04T01:25:14.230Z,21.20
2018-11-04T01:27:43.136Z,21.60
2018-11-04T01:30:14.008Z,26.57
2018-11-04T01:32:43.106Z,31.23
2018-11-04T01:35:12.057Z,26.13
2018-11-04T01:37:40.889Z,28.87
2018-11-04T01:40:10.551Z,21.50
2018-11-04T01:42:39.654Z,19.70
2018-11-04T01:45:10.320Z,24.57
2018-11-04T01:47:39.338Z,20.53
2018-11-04T01:50:11.708Z,21.80
2018-11-04T01:52:40.535Z,20.93
2018-11-04T01:55:10.240Z,24.27
2018-11-04T01:57:39.155Z,24.63
2018-11-04T02:00:12.604Z,22.33
2018-11-04T02:02:41.999Z,20.43
2018-11-04T02:05:11.862Z,22.47
2018-11-04T02:07:41.087Z,27.30
2018-11-04T02:10:12.365Z,25.73
2018-11-04T02:12:41.226Z,21.47
2018-11-04T02:15:11.835Z,29.87
2018-11-04T02:17:40.770Z,22.53
2018-11-04T02:20:11.525Z,27.30
2018-11-04T02:22:40.739Z,21.17
2018-11-04T02:25:10.983Z,26.80
2018-11-04T02:27:40.096Z,24.43
2018-11-04T02:30:11.782Z,23.20
2018-11-04T02:32:40.805Z,22.43
2018-11-04T02:35:09.837Z,21.60
2018-11-04T02:37:39.024Z,23.70
2018-11-04T02:40:08.051Z,27.70
2018-11-04T02:42:37.144Z,23.77
2018-11-04T02:45:06.909Z,26.47
2018-11-04T02:47:36.104Z,23.80
2018-11-04T02:50:05.409Z,24.30
2018-11-04T02:52:34.294Z,28.83
2018-11-04T02:55:03.340Z,23.50
2018-11-04T02:57:34.142Z,26.43
2018-11-04T03:00:03.252Z,26.50
2018-11-04T03:02:32.111Z,22.10
2018-11-04T03:05:01.126Z,28.33
2018-11-04T03:07:30.070Z,19.17
2018-11-04T03:10:01.094Z,20.93
2018-11-04T03:12:30.019Z,23.53
2018-11-04T03:14:59.537Z,20.27
2018-11-04T03:17:28.436Z,21.83
2018-11-04T03:19:57.470Z,20.03
2018-11-04T03:22:26.757Z,23.23
2018-11-04T03:24:57.743Z,18.47
2018-11-04T03:27:26.653Z,21.50
2018-11-04T03:29:55.728Z,24.13
2018-11-04T03:32:24.619Z,24.23
2018-11-04T03:34:53.622Z,25.83
2018-11-04T03:37:22.546Z,22.80
2018-11-04T03:39:51.532Z,22.93
2018-11-04T03:42:20.494Z,23.50
2018-11-04T03:44:49.537Z,21.63
2018-11-04T03:47:18.438Z,28.17
2018-11-04T03:49:47.460Z,24.80
2018-11-04T03:52:16.393Z,21.07
2018-11-04T03:54:45.392Z,21.97
2018-11-04T03:57:14.261Z,23.03
2018-11-04T03:59:43.283Z,24.33
2018-11-04T04:02:12.176Z,24.50
2018-11-04T04:04:42.177Z,21.57
2018-11-04T04:07:11.188Z,24.03
2018-11-04T04:09:40.152Z,26.00
2018-11-04T04:12:09.008Z,22.23
2018-11-04T04:14:38.092Z,26.80
2018-11-04T04:17:06.973Z,25.33
2018-11-04T04:19:37.509Z,20.53
2018-11-04T04:22:06.453Z,21.97
2018-11-04T04:24:35.512Z,22.40
2018-11-04T04:27:04.416Z,22.80
2018-11-04T04:29:33.462Z,25.77
2018-11-04T04:32:02.417Z,26.80
2018-11-04T04:34:32.259Z,23.90
2018-11-04T04:37:01.116Z,24.53
2018-11-04T04:39:30.132Z,21.57
2018-11-04T04:41:59.000Z,25.93
2018-11-04T04:44:28.001Z,23.47
2018-11-04T04:46:56.888Z,26.93
2018-11-04T04:49:25.864Z,28.57
2018-11-04T04:51:54.792Z,25.97
2018-11-04T04:54:23.880Z,29.57
2018-11-04T04:56:53.087Z,28.23
2018-11-04T04:59:24.164Z,24.37
2018-11-04T05:01:53.117Z,28.07
2018-11-04T05:04:22.143Z,26.60
2018-11-04T05:06:51.048Z,30.77
2018-11-04T05:09:20.112Z,30.17
2018-11-04T05:11:49.036Z,24.83
2018-11-04T05:14:18.124Z,24.57
2018-11-04T05:16:47.058Z,23.37
2018-11-04T05:19:16.066Z,27.10
2018-11-04T05:21:44.981Z,24.13
2018-11-04T05:24:13.959Z,28.47
2018-11-04T05:26:42.992Z,26.20
2018-11-04T05:29:12.033Z,24.57
2018-11-04T05:31:41.032Z,27.50
2018-11-04T05:34:12.161Z,28.57
2018-11-04T05:36:41.059Z,32.67
2018-11-04T05:39:11.746Z,26.60
2018-11-04T05:41:40.999Z,29.17
2018-11-04T05:44:09.969Z,28.83
2018-11-04T05:46:38.850Z,24.20
2018-11-04T05:49:07.850Z,30.57
2018-11-04T05:51:36.723Z,27.40
2018-11-04T05:54:05.950Z,30.10
2018-11-04T05:56:34.790Z,34.27
2018-11-04T05:59:05.799Z,28.40
2018-11-04T06:01:34.683Z,29.17
2018-11-04T06:04:04.697Z,30.43
2018-11-04T06:06:33.546Z,29.70
2018-11-04T06:09:02.658Z,33.93
2018-11-04T06:11:31.532Z,44.53
2018-11-04T06:14:00.573Z,40.43
2018-11-04T06:16:29.382Z,37.80
2018-11-04T06:18:58.364Z,40.57
2018-11-04T06:21:27.212Z,38.07
2018-11-04T06:23:56.208Z,37.90
2018-11-04T06:26:25.200Z,44.40
2018-11-04T06:28:54.307Z,43.13
2018-11-04T06:31:23.151Z,45.00
2018-11-04T06:33:55.750Z,50.63
2018-11-04T06:36:24.672Z,52.83
2018-11-04T06:38:53.649Z,52.40
2018-11-04T06:41:22.494Z,54.43
2018-11-04T06:43:51.425Z,53.43
2018-11-04T06:46:20.355Z,54.73
2018-11-04T06:48:49.371Z,59.27
2018-11-04T06:51:18.242Z,52.27
2018-11-04T06:53:47.212Z,55.43
2018-11-04T06:56:16.135Z,53.03
2018-11-04T06:58:45.128Z,54.13
2018-11-04T07:01:14.035Z,52.33
2018-11-04T07:03:52.946Z,53.90
2018-11-04T07:06:25.553Z,62.10
2018-11-04T07:08:54.526Z,51.63
2018-11-04T07:11:23.681Z,54.03
2018-11-04T07:13:52.686Z,51.53
2018-11-04T07:16:21.748Z,56.27
2018-11-04T07:18:50.647Z,50.37
2018-11-04T07:21:19.889Z,51.97
2018-11-04T07:23:48.798Z,47.90
2018-11-04T07:26:17.832Z,48.53
2018-11-04T07:28:47.942Z,46.43
2018-11-04T07:31:17.095Z,47.47
2018-11-04T07:33:46.048Z,51.00
2018-11-04T07:36:16.267Z,53.90
2018-11-04T07:38:45.187Z,58.03
2018-11-04T07:41:15.132Z,47.20
2018-11-04T07:43:44.033Z,46.63
2018-11-04T07:46:12.967Z,43.63
2018-11-04T07:48:42.436Z,50.53
2018-11-04T07:51:12.405Z,43.60
2018-11-04T07:53:41.328Z,53.07
2018-11-04T07:56:10.255Z,49.53
2018-11-04T07:58:39.165Z,51.57
2018-11-04T08:01:08.203Z,50.93
2018-11-04T08:03:37.101Z,51.50
2018-11-04T08:06:06.408Z,47.23
2018-11-04T08:08:35.282Z,53.33
2018-11-04T08:11:04.471Z,52.47
2018-11-04T08:13:33.363Z,43.27
2018-11-04T08:16:02.416Z,50.50
2018-11-04T08:18:31.313Z,52.37
2018-11-04T08:21:00.304Z,51.30
2018-11-04T08:23:29.182Z,39.27
2018-11-04T08:26:00.151Z,52.37
2018-11-04T08:28:29.038Z,43.07
2018-11-04T08:30:59.053Z,44.07
2018-11-04T08:33:28.409Z,42.33
2018-11-04T08:35:57.590Z,46.63
2018-11-04T08:38:26.516Z,52.27
2018-11-04T08:40:57.609Z,49.07
2018-11-04T08:43:26.551Z,43.90
2018-11-04T08:45:56.682Z,53.13
2018-11-04T08:48:25.575Z,53.57
2018-11-04T08:50:58.254Z,49.43
2018-11-04T08:53:27.147Z,38.90
2018-11-04T08:55:58.172Z,51.87
2018-11-04T08:58:27.109Z,44.77
2018-11-04T09:00:56.217Z,40.73
2018-11-04T09:03:25.090Z,50.67
2018-11-04T09:05:54.135Z,57.77
2018-11-04T09:08:23.363Z,50.20
2018-11-04T09:10:56.927Z,41.43
2018-11-04T09:13:25.754Z,53.70
2018-11-04T09:15:54.934Z,53.87
2018-11-04T09:18:23.830Z,45.03
2018-11-04T09:20:53.068Z,52.07
2018-11-04T09:23:21.991Z,54.47
2018-11-04T09:25:53.020Z,51.83
2018-11-04T09:28:21.935Z,48.33
2018-11-04T09:30:54.459Z,42.63
2018-11-04T09:33:23.366Z,45.80
2018-11-04T09:35:52.648Z,51.03
2018-11-04T09:38:21.525Z,41.73
2018-11-04T09:40:55.176Z,47.53
2018-11-04T09:43:24.335Z,47.40
2018-11-04T09:45:53.455Z,49.77
2018-11-04T09:48:22.368Z,48.13
2018-11-04T09:50:51.576Z,51.30
2018-11-04T09:53:20.511Z,44.83
2018-11-04T09:55:49.879Z,41.07
2018-11-04T09:58:19.239Z,40.77
2018-11-04T10:00:48.218Z,43.37
2018-11-04T10:03:17.136Z,40.57
2018-11-04T10:05:46.118Z,42.17
2018-11-04T10:08:15.067Z,41.43
2018-11-04T10:10:45.089Z,38.07
2018-11-04T10:13:14.025Z,37.30
2018-11-04T10:15:43.092Z,43.10
2018-11-04T10:18:12.198Z,43.47
2018-11-04T10:20:41.464Z,42.13
2018-11-04T10:23:10.134Z,43.07
2018-11-04T10:25:40.238Z,38.40
2018-11-04T10:28:09.209Z,45.97
2018-11-04T10:30:38.228Z,43.07
2018-11-04T10:33:07.589Z,40.60
2018-11-04T10:35:37.238Z,39.03
2018-11-04T10:38:06.646Z,40.93
2018-11-04T10:40:36.751Z,37.30
2018-11-04T10:43:05.921Z,41.23
2018-11-04T10:45:34.961Z,38.97
2018-11-04T10:48:03.966Z,43.90
2018-11-04T10:50:33.125Z,38.70
2018-11-04T10:53:02.055Z,41.90
2018-11-04T10:55:31.160Z,38.63
2018-11-04T10:58:00.084Z,41.20
2018-11-04T11:00:34.486Z,37.87
2018-11-04T11:03:04.105Z,35.90
2018-11-04T11:05:35.227Z,39.97
2018-11-04T11:08:04.143Z,36.50
2018-11-04T11:10:34.275Z,36.97
2018-11-04T11:13:03.181Z,38.67
2018-11-04T11:24:12.686Z,37.70
2018-11-04T11:26:41.517Z,37.87
2018-11-04T11:29:10.346Z,34.63
2018-11-04T11:31:39.208Z,41.80
2018-11-04T11:34:08.021Z,35.13
2018-11-04T11:36:37.769Z,36.80
2018-11-04T11:39:11.356Z,35.80
2018-11-04T11:41:42.168Z,33.57
2018-11-04T11:44:11.231Z,41.50
2018-11-04T11:46:40.261Z,41.50
2018-11-04T11:49:10.734Z,39.60
2018-11-04T11:51:39.584Z,40.80
2018-11-04T11:54:10.457Z,41.80
2018-11-04T11:56:39.344Z,38.50
2018-11-04T11:59:08.215Z,39.77
2018-11-04T12:01:37.096Z,40.43
2018-11-04T12:04:06.882Z,41.37
2018-11-04T12:06:35.834Z,45.87
2018-11-04T12:09:06.105Z,39.37
2018-11-04T12:11:36.881Z,42.40
2018-11-04T12:14:05.903Z,48.77
2018-11-04T12:16:34.994Z,47.77
2018-11-04T12:19:03.919Z,41.57
2018-11-04T12:21:33.060Z,40.80
2018-11-04T12:24:01.906Z,42.03
2018-11-04T12:26:30.816Z,43.43
2018-11-04T12:28:59.845Z,41.60
2018-11-04T12:31:28.675Z,40.33
2018-11-04T12:33:57.504Z,40.13
2018-11-04T12:36:26.495Z,39.83
2018-11-04T12:38:55.403Z,40.20
2018-11-04T12:41:24.326Z,35.47
2018-11-04T12:43:53.266Z,40.60
2018-11-04T12:46:22.223Z,35.90
2018-11-04T12:48:51.706Z,37.23
2018-11-04T12:51:20.611Z,37.97
2018-11-04T12:53:49.501Z,37.80
2018-11-04T12:56:18.427Z,38.50
2018-11-04T12:58:47.309Z,37.80
2018-11-04T13:01:16.199Z,39.57
2018-11-04T13:03:45.089Z,35.37
2018-11-04T13:06:14.024Z,40.93
2018-11-04T13:08:42.840Z,37.43
2018-11-04T13:11:11.687Z,37.10
2018-11-04T13:13:40.568Z,39.23
2018-11-04T13:16:09.429Z,40.00
2018-11-04T13:18:38.256Z,40.07
2018-11-04T13:21:07.249Z,39.17
2018-11-04T13:23:36.079Z,43.83
2018-11-04T13:26:04.972Z,35.40
2018-11-04T13:28:33.851Z,34.80
2018-11-04T13:31:02.741Z,36.53
2018-11-04T13:33:31.643Z,38.33
2018-11-04T13:36:00.736Z,34.60
2018-11-04T13:38:29.592Z,39.47
2018-11-04T13:40:58.476Z,36.53
2018-11-04T13:43:27.462Z,36.30
2018-11-04T13:45:56.538Z,44.53
2018-11-04T13:48:25.788Z,36.67
2018-11-04T13:50:54.859Z,39.77
2018-11-04T13:53:23.783Z,36.57
2018-11-04T13:55:52.669Z,39.63
2018-11-04T13:58:21.535Z,41.60
2018-11-04T14:00:50.878Z,40.80
2018-11-04T14:03:19.741Z,38.73
2018-11-04T14:05:48.720Z,41.20
2018-11-04T14:08:17.625Z,40.40
2018-11-04T14:10:46.554Z,37.87
2018-11-04T14:13:15.537Z,38.77
2018-11-04T14:15:44.436Z,40.37
2018-11-04T14:18:13.536Z,38.80
2018-11-04T14:20:42.579Z,36.80
2018-11-04T14:23:11.522Z,36.57
2018-11-04T14:25:40.379Z,36.57
2018-11-04T14:28:09.257Z,35.60
2018-11-04T14:30:38.052Z,34.53
2018-11-04T14:33:07.295Z,32.77
2018-11-04T14:35:36.778Z,34.63
2018-11-04T14:38:05.729Z,36.93
2018-11-04T14:40:34.661Z,35.20
2018-11-04T14:43:03.548Z,29.57
2018-11-04T14:45:32.462Z,30.33
2018-11-04T14:48:01.494Z,30.70
2018-11-04T14:50:30.342Z,31.47
2018-11-04T14:52:59.331Z,30.30
2018-11-04T14:55:28.187Z,29.67
2018-11-04T14:57:57.014Z,26.20
2018-11-04T15:00:25.933Z,28.43
2018-11-04T15:02:54.822Z,29.57
2018-11-04T15:05:23.689Z,32.27
2018-11-04T15:07:52.578Z,29.73
2018-11-04T15:10:21.545Z,31.93
2018-11-04T15:12:50.410Z,28.13
2018-11-04T15:15:19.546Z,32.20
2018-11-04T15:17:48.400Z,35.07
2018-11-04T15:20:17.310Z,32.83
2018-11-04T15:22:48.227Z,31.07
2018-11-04T15:25:18.451Z,32.33
2018-11-04T15:27:47.728Z,33.90
2018-11-04T15:30:16.630Z,34.43
2018-11-04T15:32:45.572Z,36.43
2018-11-04T15:35:15.274Z,34.93
2018-11-04T15:37:44.221Z,39.27
2018-11-04T15:40:14.214Z,34.27
2018-11-04T15:42:43.104Z,32.73
2018-11-04T15:45:13.425Z,33.30
2018-11-04T15:47:42.630Z,35.90
2018-11-04T15:50:13.477Z,32.90
2018-11-04T15:52:42.367Z,37.13
2018-11-04T15:55:11.207Z,35.60
2018-11-04T15:57:40.101Z,35.30
2018-11-04T16:00:10.499Z,37.03
2018-11-04T16:02:39.471Z,37.20
2018-11-04T16:05:09.216Z,38.17
2018-11-04T16:07:38.008Z,37.70
2018-11-04T16:10:08.223Z,33.13
2018-11-04T16:12:37.438Z,36.20
2018-11-04T16:15:08.320Z,43.60
2018-11-04T16:17:37.331Z,37.60
2018-11-04T16:20:07.706Z,40.53
2018-11-04T16:22:36.651Z,33.17
2018-11-04T16:25:06.130Z,44.23
2018-11-04T16:27:35.011Z,37.53
2018-11-04T16:30:03.827Z,41.90
2018-11-04T16:32:32.701Z,43.30
2018-11-04T16:35:01.544Z,42.93
2018-11-04T16:37:30.473Z,46.80
2018-11-04T16:39:59.329Z,62.00
2018-11-04T16:42:28.258Z,44.27
2018-11-04T16:44:57.172Z,44.47
2018-11-04T16:47:25.991Z,46.07
2018-11-04T16:49:54.802Z,44.10
2018-11-04T16:52:23.754Z,46.00
2018-11-04T16:54:52.613Z,46.53
2018-11-04T16:57:21.525Z,45.23
2018-11-04T16:59:52.036Z,43.13
2018-11-04T17:02:21.173Z,46.80
2018-11-04T17:04:56.024Z,35.47
2018-11-04T17:07:24.859Z,41.60
2018-11-04T17:09:53.770Z,38.50
2018-11-04T17:12:22.652Z,38.87
2018-11-04T17:14:51.505Z,33.00
2018-11-04T17:17:20.376Z,30.83
2018-11-04T17:19:49.422Z,31.60
2018-11-04T17:22:18.305Z,30.80
2018-11-04T17:24:47.122Z,27.87
2018-11-04T17:27:15.970Z,30.00
2018-11-04T17:29:44.761Z,28.40
2018-11-04T17:32:13.679Z,27.93
2018-11-04T17:34:42.486Z,26.03
2018-11-04T17:37:11.607Z,23.53
2018-11-04T17:39:40.495Z,23.40
2018-11-04T17:42:09.327Z,19.83
2018-11-04T17:44:38.245Z,20.83
2018-11-04T17:47:07.044Z,18.70
2018-11-04T17:49:36.309Z,19.47
2018-11-04T17:52:05.202Z,19.50
2018-11-04T17:54:34.043Z,17.90
2018-11-04T17:57:02.841Z,17.67
2018-11-04T17:59:31.658Z,16.83
2018-11-04T18:02:00.710Z,17.40
2018-11-04T18:04:29.946Z,14.83
2018-11-04T18:06:59.239Z,13.10
2018-11-04T18:09:28.069Z,14.10
2018-11-04T18:11:56.891Z,14.10
2018-11-04T18:14:25.725Z,14.10
2018-11-04T18:16:54.611Z,13.30
2018-11-04T18:19:23.417Z,16.53
2018-11-04T18:21:52.261Z,13.77
2018-11-04T18:24:21.164Z,13.60
2018-11-04T18:26:50.046Z,12.27
2018-11-04T18:29:18.823Z,12.07
2018-11-04T18:31:47.669Z,14.60
2018-11-04T18:34:16.471Z,13.00
2018-11-04T18:36:45.275Z,13.77
2018-11-04T18:39:14.156Z,15.07
2018-11-04T18:41:43.003Z,15.13
2018-11-04T18:44:11.872Z,15.90
2018-11-04T18:46:40.690Z,15.03
2018-11-04T18:49:09.544Z,16.37
2018-11-04T18:51:38.320Z,17.67
2018-11-04T18:54:07.171Z,15.40
2018-11-04T18:56:35.973Z,17.60
2018-11-04T18:59:05.195Z,16.80
2018-11-04T19:01:34.155Z,15.97
2018-11-04T19:04:02.997Z,16.03
2018-11-04T19:06:31.826Z,14.90
2018-11-04T19:09:00.677Z,15.73
2018-11-04T19:11:29.555Z,16.67
2018-11-04T19:13:58.387Z,15.97
2018-11-04T19:16:27.131Z,16.60
2018-11-04T19:18:56.029Z,14.43
2018-11-04T19:21:24.889Z,17.17
2018-11-04T19:23:53.688Z,16.23
2018-11-04T19:26:22.509Z,17.87
2018-11-04T19:28:51.346Z,17.23
2018-11-04T19:31:20.254Z,18.30
2018-11-04T19:33:49.005Z,18.80
2018-11-04T19:36:17.871Z,16.80
2018-11-04T19:38:46.744Z,17.37
2018-11-04T19:41:15.605Z,16.37
2018-11-04T19:43:44.519Z,18.40
2018-11-04T19:46:13.358Z,16.13
2018-11-04T19:48:42.279Z,14.30
2018-11-04T19:51:11.163Z,17.80
2018-11-04T19:53:40.096Z,16.63
2018-11-04T19:56:09.310Z,18.03
2018-11-04T19:58:38.169Z,18.87
2018-11-04T20:01:07.814Z,20.20
2018-11-04T20:03:36.605Z,19.13
2018-11-04T20:06:05.909Z,17.93
2018-11-04T20:08:34.750Z,18.47
2018-11-04T20:11:03.650Z,16.60
2018-11-04T20:13:37.796Z,20.63
2018-11-04T20:16:06.586Z,18.17
2018-11-04T20:18:40.617Z,17.00
2018-11-04T20:21:09.562Z,18.47
2018-11-04T20:23:38.527Z,18.40
2018-11-04T20:26:09.153Z,19.83
2018-11-04T20:28:38.024Z,16.30
2018-11-04T20:31:06.948Z,17.67
2018-11-04T20:33:35.836Z,19.80
2018-11-04T20:36:04.717Z,17.93
2018-11-04T20:38:38.806Z,19.77
2018-11-04T20:41:12.963Z,14.60
2018-11-04T20:43:41.798Z,16.10
2018-11-04T20:46:10.641Z,17.37
2018-11-04T20:48:45.141Z,17.30
2018-11-04T20:51:14.048Z,17.50
2018-11-04T20:53:42.858Z,21.07
2018-11-04T20:56:17.415Z,22.13
2018-11-04T20:58:46.290Z,19.97
2018-11-04T21:01:15.190Z,20.67
2018-11-04T21:03:44.105Z,20.90
2018-11-04T21:06:12.979Z,20.10
2018-11-04T21:08:42.021Z,19.37
2018-11-04T21:11:10.674Z,19.77
2018-11-04T21:13:39.808Z,24.17
2018-11-04T21:16:08.747Z,21.17
2018-11-04T21:18:37.547Z,21.23
2018-11-04T21:21:06.387Z,20.67
2018-11-04T21:23:35.200Z,23.00
2018-11-04T21:26:04.027Z,21.67
2018-11-04T21:28:33.056Z,23.33
2018-11-04T21:31:01.818Z,22.90
2018-11-04T21:33:30.657Z,22.23
2018-11-04T21:35:59.551Z,23.73
2018-11-04T21:38:28.382Z,23.07
2018-11-04T21:40:57.212Z,21.73
2018-11-04T21:43:26.249Z,23.37
2018-11-04T21:45:54.921Z,23.07
2018-11-04T21:48:23.724Z,21.57
2018-11-04T21:50:52.565Z,22.03
2018-11-04T21:53:21.415Z,20.17
2018-11-04T21:55:50.954Z,23.67
2018-11-04T21:58:19.810Z,20.47
2018-11-04T22:00:48.603Z,19.13
2018-11-04T22:03:17.529Z,23.43
2018-11-04T22:05:48.366Z,23.03
2018-11-04T22:08:17.229Z,20.30
2018-11-04T22:10:46.090Z,23.27
2018-11-04T22:13:14.898Z,22.63
2018-11-04T22:15:43.724Z,21.67
2018-11-04T22:18:12.578Z,22.07
2018-11-04T22:20:41.375Z,21.00
2018-11-04T22:23:10.225Z,20.63
2018-11-04T22:25:39.038Z,22.63
2018-11-04T22:28:07.860Z,22.07
2018-11-04T22:30:36.699Z,18.97
2018-11-04T22:33:05.577Z,21.67
2018-11-04T22:35:34.469Z,20.30
2018-11-04T22:38:03.254Z,20.63
2018-11-04T22:40:32.073Z,21.93
2018-11-04T22:43:00.895Z,20.27
2018-11-04T22:45:29.698Z,19.33
2018-11-04T22:47:58.535Z,20.00
2018-11-04T22:50:27.345Z,20.23
2018-11-04T22:52:56.160Z,17.53
2018-11-04T22:55:24.975Z,17.70
2018-11-04T22:57:58.010Z,20.80
2018-11-04T23:00:32.071Z,18.50
2018-11-04T23:03:00.850Z,18.50
2018-11-04T23:05:29.639Z,18.27
2018-11-04T23:07:58.521Z,20.27
2018-11-04T23:10:27.379Z,19.47
2018-11-04T23:12:56.197Z,20.70
2018-11-04T23:15:25.091Z,18.97
2018-11-04T23:17:53.953Z,18.80
2018-11-04T23:20:22.763Z,18.40
2018-11-04T23:22:51.573Z,17.67
2018-11-04T23:25:20.520Z,19.33
2018-11-04T23:27:49.356Z,17.60
2018-11-04T23:30:19.226Z,18.77
2018-11-04T23:32:48.402Z,21.47
2018-11-04T23:35:17.290Z,18.87
2018-11-04T23:37:46.114Z,19.10
2018-11-04T23:40:14.922Z,20.77
2018-11-04T23:42:43.816Z,20.17
2018-11-04T23:45:13.839Z,22.20
2018-11-04T23:47:43.054Z,19.73
2018-11-04T23:50:14.779Z,21.70
2018-11-04T23:52:44.169Z,23.87
2018-11-04T23:55:13.917Z,23.27
2018-11-04T23:57:42.758Z,24.17
